Warriormine, WV (24894)

7:28 PM EST on February 10, 2016 (GMT -0500)
KM4HDM - Richlands, Virginia | | Change Station
CLOSE
Current Station
Personal Weather Station
Location: Richlands, VA
Elevation: 1972 ft
Nearby Weather Stations
Active Advisory: Special Statement

Elev 1972 ft 37.09 °N, 81.83 °W | Updated 6 minutes ago

Overcast
Overcast
15.4 °F
Feels Like 15 °F
N
0.0
Wind Variable Wind from West

Today
High -- | Low -- °F
--% Chance of Precip.
Yesterday
High -- | Low -- °F
Precip. -- in
Pressure 29.92 in
Visibility 10.0 miles
Clouds Scattered Clouds 2400 ft
Overcast 3000 ft
Windchill 15 °F
Dew Point 8 °F
Humidity 71%
Rainfall 0.00 in
Snow Depth Not available.
7:21 AM 6:00 PM
Waxing Crescent, 8% visible
METAR KJFZ 110015Z AUTO 30008KT 10SM SCT024 OVC030 M10/M15 A2992 RMK AO2 T11011155
Pressure 29.92 in
Visibility 10.0 miles
Clouds Scattered Clouds 2400 ft
Overcast 3000 ft
Windchill 15 °F
Dew Point 8 °F
Humidity 71%
Rainfall 0.00 in
Snow Depth Not available.
7:21 AM 6:00 PM
Waxing Crescent, 8% visible
METAR KJFZ 110015Z AUTO 30008KT 10SM SCT024 OVC030 M10/M15 A2992 RMK AO2 T11011155

10-Day Weather Forecast

Almanac

Astronomy

Feb. 10, 2016 Rise Set
Actual Time
Civil Twilight
Nautical Twilight
Astronomical Twilight
Moon
Length of Visible Light
Length of Day
Tomorrow will be .
, % of the Moon is Illuminated

Today's Extremes

State Highs State Lows

Community

WunderPhotos

Upload Photos

1,891,944 photos uploaded!

WunderBlog® & News

Nearby

Air Quality

  Air Quality AQ Index Pollutant
Not available.

Snow Depth

Station Depth Elevation

Earthquake Activity

City Distance Mag. Time & Date
Minimum magnitude displayed is 2.5.

Coastal Water Temperatures

Place Temperature

Stations

Nearby Weather Stations

Station Location Temp. Windchill Dew Point Humidity Wind Precip. Elev Updated Type
                   

Watches & Warnings

Special Statement
Issued: 7:22 PM EST Feb. 10, 2016 – National Weather Service

... Scattered snow showers continue tonight...

Scattered snow showers will continue tonight across parts of southeastern
Ohio... northeastern Kentucky and southern and central West
Virginia. These snow showers are leading to slick Road conditions
and areas of reduced visibility.

Accumulations of a half inch to an inch is possible is some
locations... before the snow showers start to diminish later
tonight.


Kistner


722 PM EST Wed Feb 10 2016

... Scattered snow showers continue tonight...

Scattered snow showers will continue tonight across parts of southeastern
Ohio... northeastern Kentucky and southern and central West
Virginia. These snow showers are leading to slick Road conditions
and areas of reduced visibility.

Accumulations of a half inch to an inch is possible is some
locations... before the snow showers start to diminish later
tonight.


Kistner